Time;durP1;ratioP1;P1;durP2;ratioP2;P2;SDS_P1;SDS_P2;PMS_P1;PMS_P2;Temp;Humidity;BMP_temperature;BMP_pressure;BME280_temperature;BME280_humidity;BME280_pressure;Samples;Min_cycle;Max_cycle;Signal;HPM_P1;HPM_P2
2023/03/04 00:01:28;;;;;;;48.63;22.47;;;;;;;;;;772233;179;918635;-65
2023/03/04 00:03:54;;;;;;;44.47;22.63;;;;;;;;;;770654;181;917907;-67
2023/03/04 00:06:20;;;;;;;49.93;21.70;;;;;;;;;;769053;181;816979;-68
2023/03/04 00:08:46;;;;;;;46.30;24.10;;;;;;;;;;768053;182;919863;-66
2023/03/04 00:11:11;;;;;;;48.40;21.90;;;;;;;;;;769968;181;918712;-65
2023/03/04 00:13:37;;;;;;;53.80;24.43;;;;;;;;;;771402;182;900922;-64
2023/03/04 00:16:03;;;;;;;47.73;23.63;;;;;;;;;;766224;182;919324;-65
2023/03/04 00:18:29;;;;;;;50.43;24.33;;;;;;;;;;767188;182;917992;-65
2023/03/04 00:20:55;;;;;;;52.37;24.87;;;;;;;;;;772624;182;894201;-66
2023/03/04 00:23:21;;;;;;;46.83;20.57;;;;;;;;;;767255;182;918966;-64
2023/03/04 00:25:46;;;;;;;44.47;22.67;;;;;;;;;;767298;181;921298;-67
2023/03/04 00:28:12;;;;;;;54.00;26.80;;;;;;;;;;774328;181;922479;-65
2023/03/04 00:30:38;;;;;;;50.80;25.60;;;;;;;;;;770826;181;915612;-67
2023/03/04 00:33:04;;;;;;;51.67;23.07;;;;;;;;;;766258;179;918211;-66
2023/03/04 00:35:30;;;;;;;50.30;23.23;;;;;;;;;;770892;181;918629;-66
2023/03/04 00:37:56;;;;;;;46.33;24.07;;;;;;;;;;778483;180;918895;-68
2023/03/04 00:40:22;;;;;;;57.40;27.00;;;;;;;;;;772601;180;919150;-66
2023/03/04 00:42:47;;;;;;;52.53;24.40;;;;;;;;;;765812;181;918377;-66
2023/03/04 00:45:13;;;;;;;56.07;22.10;;;;;;;;;;773117;180;918860;-67
2023/03/04 00:47:39;;;;;;;50.97;24.40;;;;;;;;;;771863;179;926969;-67
2023/03/04 00:50:05;;;;;;;49.10;24.70;;;;;;;;;;769799;180;916485;-68
2023/03/04 00:52:31;;;;;;;44.57;23.77;;;;;;;;;;777446;180;820155;-67
2023/03/04 00:54:57;;;;;;;51.53;21.90;;;;;;;;;;772013;180;922339;-66
2023/03/04 00:57:23;;;;;;;52.83;24.77;;;;;;;;;;775145;181;918472;-68
2023/03/04 00:59:49;;;;;;;49.83;24.27;;;;;;;;;;772951;181;918848;-66
2023/03/04 01:02:14;;;;;;;54.23;23.23;;;;;;;;;;768598;180;814537;-66
2023/03/04 01:04:40;;;;;;;52.17;22.23;;;;;;;;;;758441;183;918758;-69
2023/03/04 01:07:06;;;;;;;54.78;24.23;;;;;;;;;;768956;181;918351;-69
2023/03/04 01:09:32;;;;;;;45.83;23.57;;;;;;;;;;778815;181;836350;-68
2023/03/04 01:11:58;;;;;;;57.17;28.50;;;;;;;;;;767064;182;914185;-69
2023/03/04 01:14:24;;;;;;;55.40;25.53;;;;;;;;;;765065;179;1037477;-66
2023/03/04 01:16:50;;;;;;;53.03;25.10;;;;;;;;;;768875;180;916386;-68
2023/03/04 01:19:15;;;;;;;44.58;23.50;;;;;;;;;;763591;183;918772;-66
2023/03/04 01:21:41;;;;;;;48.23;23.77;;;;;;;;;;766173;179;919161;-68
2023/03/04 01:24:08;;;;;;;50.08;26.10;;;;;;;;;;777571;180;920646;-66
2023/03/04 01:26:34;;;;;;;62.90;25.50;;;;;;;;;;775094;179;921484;-66
2023/03/04 01:28:59;;;;;;;58.27;27.00;;;;;;;;;;771286;181;918702;-65
2023/03/04 01:31:25;;;;;;;47.08;24.20;;;;;;;;;;772574;181;919925;-65
2023/03/04 01:33:51;;;;;;;56.83;25.03;;;;;;;;;;778322;181;815631;-65
2023/03/04 01:36:17;;;;;;;59.40;25.07;;;;;;;;;;771945;181;918955;-64
2023/03/04 01:38:43;;;;;;;53.10;26.67;;;;;;;;;;774840;181;920107;-67
2023/03/04 01:41:09;;;;;;;55.93;28.07;;;;;;;;;;777009;181;919673;-67
2023/03/04 01:43:34;;;;;;;63.63;27.20;;;;;;;;;;767559;180;915901;-69
2023/03/04 01:46:00;;;;;;;70.80;28.93;;;;;;;;;;766119;182;918789;-65
2023/03/04 01:48:26;;;;;;;59.90;28.57;;;;;;;;;;772098;182;916741;-68
2023/03/04 01:50:52;;;;;;;56.50;26.00;;;;;;;;;;765966;182;920254;-68
2023/03/04 01:53:19;;;;;;;63.17;27.90;;;;;;;;;;767201;182;919325;-65
2023/03/04 01:55:44;;;;;;;59.03;26.40;;;;;;;;;;770206;180;919297;-67
2023/03/04 01:58:10;;;;;;;60.43;31.37;;;;;;;;;;771426;180;814705;-65
2023/03/04 02:00:36;;;;;;;65.70;33.10;;;;;;;;;;772969;180;815181;-68
2023/03/04 02:03:03;;;;;;;64.37;30.27;;;;;;;;;;767419;179;1125290;-69
2023/03/04 02:05:29;;;;;;;63.47;29.23;;;;;;;;;;776069;182;1020139;-69
2023/03/04 02:07:54;;;;;;;73.77;32.53;;;;;;;;;;767132;179;920355;-66
2023/03/04 02:10:20;;;;;;;63.63;28.73;;;;;;;;;;771243;180;918564;-69
2023/03/04 02:12:46;;;;;;;73.53;31.37;;;;;;;;;;778429;180;818450;-66
2023/03/04 02:15:12;;;;;;;68.93;31.63;;;;;;;;;;772096;181;927112;-66
2023/03/04 02:17:38;;;;;;;63.70;29.87;;;;;;;;;;769392;181;919411;-66
2023/03/04 02:20:05;;;;;;;64.27;29.50;;;;;;;;;;770171;182;918984;-68
2023/03/04 02:22:31;;;;;;;56.57;26.50;;;;;;;;;;776962;181;920350;-67
2023/03/04 02:24:58;;;;;;;67.17;26.93;;;;;;;;;;770044;181;918525;-68
2023/03/04 02:27:24;;;;;;;64.70;29.33;;;;;;;;;;774576;181;919674;-68
2023/03/04 02:29:50;;;;;;;67.37;26.40;;;;;;;;;;780545;180;919966;-66
2023/03/04 02:32:15;;;;;;;68.97;28.93;;;;;;;;;;768358;180;1026541;-65
2023/03/04 02:34:42;;;;;;;62.00;28.42;;;;;;;;;;766964;180;918950;-65
2023/03/04 02:37:07;;;;;;;65.10;30.50;;;;;;;;;;774960;181;918894;-66
2023/03/04 02:39:33;;;;;;;70.90;29.50;;;;;;;;;;767612;179;909315;-67
2023/03/04 02:41:59;;;;;;;62.63;28.50;;;;;;;;;;766158;179;921056;-68
2023/03/04 02:44:25;;;;;;;59.50;26.07;;;;;;;;;;767144;182;920677;-68
2023/03/04 02:46:51;;;;;;;72.90;29.80;;;;;;;;;;772435;182;816880;-65
2023/03/04 02:49:17;;;;;;;67.17;30.40;;;;;;;;;;769653;181;816891;-66
2023/03/04 02:51:43;;;;;;;68.67;30.00;;;;;;;;;;774141;181;757609;-65
2023/03/04 02:54:17;;;;;;;65.07;30.80;;;;;;;;;;776607;181;912718;-67
2023/03/04 02:56:46;;;;;;;72.43;29.57;;;;;;;;;;769415;183;915368;-67
2023/03/04 02:59:11;;;;;;;62.60;29.40;;;;;;;;;;759865;183;915977;-65
2023/03/04 03:01:37;;;;;;;57.83;28.23;;;;;;;;;;763151;183;911967;-66
2023/03/04 03:04:03;;;;;;;59.70;29.13;;;;;;;;;;767419;183;1123921;-67
2023/03/04 03:06:29;;;;;;;65.10;30.63;;;;;;;;;;763697;183;1125300;-66
2023/03/04 03:08:55;;;;;;;60.23;29.47;;;;;;;;;;769951;181;1024934;-69
2023/03/04 03:11:21;;;;;;;75.67;33.77;;;;;;;;;;780912;180;817790;-68
2023/03/04 03:13:46;;;;;;;72.77;33.43;;;;;;;;;;775558;180;917511;-67
2023/03/04 03:16:12;;;;;;;73.35;31.80;;;;;;;;;;772888;181;919243;-67
2023/03/04 03:18:39;;;;;;;79.17;31.50;;;;;;;;;;768476;180;919213;-65
2023/03/04 03:21:04;;;;;;;90.70;34.03;;;;;;;;;;764736;182;919343;-64
2023/03/04 03:23:30;;;;;;;83.70;35.70;;;;;;;;;;761850;181;918368;-67
2023/03/04 03:25:56;;;;;;;80.73;35.90;;;;;;;;;;774666;181;819024;-68
2023/03/04 03:28:22;;;;;;;76.93;33.60;;;;;;;;;;771636;181;863737;-67
2023/03/04 03:30:47;;;;;;;68.90;33.80;;;;;;;;;;766045;181;918981;-68
2023/03/04 03:33:13;;;;;;;67.13;30.37;;;;;;;;;;773226;181;919692;-68
2023/03/04 03:35:39;;;;;;;63.33;31.77;;;;;;;;;;774885;181;918073;-64
2023/03/04 03:38:05;;;;;;;69.90;36.90;;;;;;;;;;775584;180;832430;-67
2023/03/04 03:40:31;;;;;;;77.63;35.07;;;;;;;;;;773536;180;920827;-64
2023/03/04 03:42:57;;;;;;;63.97;30.50;;;;;;;;;;770926;181;919544;-65
2023/03/04 03:45:23;;;;;;;68.67;31.30;;;;;;;;;;771135;183;816817;-65
2023/03/04 03:47:49;;;;;;;70.53;34.60;;;;;;;;;;772801;180;919382;-68
2023/03/04 03:50:15;;;;;;;74.60;33.47;;;;;;;;;;772899;181;920202;-67
2023/03/04 03:52:41;;;;;;;71.37;34.60;;;;;;;;;;775424;181;918731;-64
2023/03/04 03:55:07;;;;;;;82.40;34.60;;;;;;;;;;769928;179;940035;-67
2023/03/04 03:57:33;;;;;;;88.43;38.80;;;;;;;;;;770101;181;894736;-68
2023/03/04 03:59:59;;;;;;;71.60;32.60;;;;;;;;;;776036;181;919562;-67
2023/03/04 04:02:24;;;;;;;70.53;31.57;;;;;;;;;;769736;181;916858;-65
2023/03/04 04:04:50;;;;;;;83.27;33.10;;;;;;;;;;764029;183;917870;-67
2023/03/04 04:07:16;;;;;;;84.07;36.47;;;;;;;;;;778249;180;917457;-65
2023/03/04 04:09:42;;;;;;;68.30;31.53;;;;;;;;;;765281;182;947192;-64
2023/03/04 04:12:08;;;;;;;87.83;35.40;;;;;;;;;;770339;181;919143;-68
2023/03/04 04:14:34;;;;;;;81.30;33.40;;;;;;;;;;775018;180;917950;-65
2023/03/04 04:16:59;;;;;;;84.55;35.70;;;;;;;;;;768678;180;899681;-67
2023/03/04 04:19:25;;;;;;;83.50;32.90;;;;;;;;;;768937;180;921468;-65
2023/03/04 04:21:51;;;;;;;104.30;37.53;;;;;;;;;;772140;180;915013;-68
2023/03/04 04:24:17;;;;;;;94.77;37.57;;;;;;;;;;779599;179;916515;-68
2023/03/04 04:26:43;;;;;;;79.93;32.17;;;;;;;;;;774745;180;913289;-64
2023/03/04 04:29:09;;;;;;;80.73;34.23;;;;;;;;;;771401;180;915943;-66
2023/03/04 04:31:35;;;;;;;91.50;32.10;;;;;;;;;;777083;181;919939;-67
2023/03/04 04:34:00;;;;;;;94.57;34.47;;;;;;;;;;771089;181;946343;-65
2023/03/04 04:36:26;;;;;;;71.47;34.77;;;;;;;;;;773086;180;915104;-65
2023/03/04 04:38:52;;;;;;;74.90;36.10;;;;;;;;;;771081;180;916002;-65
2023/03/04 04:41:19;;;;;;;67.03;34.23;;;;;;;;;;759733;184;916785;-65
2023/03/04 04:43:45;;;;;;;82.13;34.37;;;;;;;;;;769893;180;917363;-66
2023/03/04 04:46:10;;;;;;;94.40;36.03;;;;;;;;;;770818;182;913059;-65
2023/03/04 04:48:36;;;;;;;66.80;32.80;;;;;;;;;;778207;181;814095;-67
2023/03/04 04:51:02;;;;;;;61.70;28.53;;;;;;;;;;775436;181;917333;-67
2023/03/04 04:53:28;;;;;;;66.33;27.00;;;;;;;;;;775442;181;917122;-66
2023/03/04 04:55:54;;;;;;;74.90;31.98;;;;;;;;;;777225;181;919704;-67
2023/03/04 04:58:20;;;;;;;72.10;33.33;;;;;;;;;;770658;181;914866;-66
2023/03/04 05:00:46;;;;;;;63.92;29.98;;;;;;;;;;765830;182;921002;-68
2023/03/04 05:03:11;;;;;;;68.60;30.70;;;;;;;;;;768153;181;818342;-64
2023/03/04 05:05:37;;;;;;;65.47;29.90;;;;;;;;;;770882;181;919050;-65
2023/03/04 05:08:03;;;;;;;59.20;28.00;;;;;;;;;;765707;181;816548;-64
2023/03/04 05:10:29;;;;;;;56.97;28.97;;;;;;;;;;763105;183;1020645;-68
2023/03/04 05:12:55;;;;;;;62.00;29.25;;;;;;;;;;768827;182;813150;-67
2023/03/04 05:15:21;;;;;;;62.00;28.87;;;;;;;;;;762640;182;942567;-65
2023/03/04 05:17:47;;;;;;;58.55;28.62;;;;;;;;;;771958;180;1019279;-67
2023/03/04 05:20:13;;;;;;;69.57;31.43;;;;;;;;;;780711;180;921358;-65
2023/03/04 05:22:38;;;;;;;62.27;25.97;;;;;;;;;;773289;181;917289;-65
2023/03/04 05:25:05;;;;;;;53.03;23.07;;;;;;;;;;773620;180;920907;-68
2023/03/04 05:27:31;;;;;;;56.10;26.92;;;;;;;;;;776058;181;922813;-66
2023/03/04 05:29:59;;;;;;;65.20;29.20;;;;;;;;;;767513;180;919749;-65
2023/03/04 05:32:25;;;;;;;62.77;28.67;;;;;;;;;;764927;179;917770;-67
2023/03/04 05:34:51;;;;;;;57.70;27.60;;;;;;;;;;767269;181;919006;-67
2023/03/04 05:37:17;;;;;;;56.50;28.20;;;;;;;;;;775305;181;918409;-67
2023/03/04 05:39:43;;;;;;;58.47;27.00;;;;;;;;;;767668;180;920509;-65
2023/03/04 05:42:08;;;;;;;54.03;26.20;;;;;;;;;;773420;180;917301;-67
2023/03/04 05:44:34;;;;;;;59.50;27.97;;;;;;;;;;775713;181;919579;-67
2023/03/04 05:47:00;;;;;;;57.60;28.13;;;;;;;;;;767375;181;919980;-65
2023/03/04 05:49:26;;;;;;;53.43;26.53;;;;;;;;;;768397;182;921079;-65
2023/03/04 05:51:52;;;;;;;60.47;29.50;;;;;;;;;;768324;181;909141;-65
2023/03/04 05:54:17;;;;;;;57.63;29.90;;;;;;;;;;781397;177;811192;-65
2023/03/04 05:56:43;;;;;;;49.83;26.13;;;;;;;;;;765594;182;816479;-66
2023/03/04 05:59:09;;;;;;;52.70;27.50;;;;;;;;;;769496;181;918204;-65
2023/03/04 06:01:35;;;;;;;64.32;28.40;;;;;;;;;;779581;180;917334;-65
2023/03/04 06:04:01;;;;;;;56.00;26.87;;;;;;;;;;769832;180;915219;-65
2023/03/04 06:06:27;;;;;;;47.13;24.02;;;;;;;;;;767313;179;1017050;-66
2023/03/04 06:08:53;;;;;;;56.77;28.93;;;;;;;;;;773570;182;919574;-66
2023/03/04 06:11:18;;;;;;;57.10;27.17;;;;;;;;;;774573;181;920500;-67
2023/03/04 06:13:44;;;;;;;52.00;27.98;;;;;;;;;;768395;181;918690;-65
2023/03/04 06:16:10;;;;;;;48.70;26.33;;;;;;;;;;778794;181;920117;-66
2023/03/04 06:18:36;;;;;;;54.27;27.10;;;;;;;;;;768848;181;1017541;-66
2023/03/04 06:21:02;;;;;;;51.80;26.27;;;;;;;;;;767657;180;959247;-67
2023/03/04 06:23:28;;;;;;;55.03;25.00;;;;;;;;;;772401;180;921923;-66
2023/03/04 06:25:53;;;;;;;54.03;23.90;;;;;;;;;;778754;180;921058;-67
2023/03/04 06:28:19;;;;;;;52.40;25.97;;;;;;;;;;768538;181;858189;-64
2023/03/04 06:30:45;;;;;;;47.37;24.50;;;;;;;;;;767420;180;918322;-64
2023/03/04 06:33:11;;;;;;;53.63;25.07;;;;;;;;;;774349;180;821602;-67
2023/03/04 06:35:37;;;;;;;54.60;27.23;;;;;;;;;;770172;181;920692;-66
2023/03/04 06:38:03;;;;;;;51.90;26.63;;;;;;;;;;770440;179;915628;-65
2023/03/04 06:40:28;;;;;;;53.93;26.13;;;;;;;;;;775311;180;917878;-64
2023/03/04 06:42:54;;;;;;;48.87;25.20;;;;;;;;;;766792;181;919641;-67
2023/03/04 06:45:20;;;;;;;44.47;23.92;;;;;;;;;;774388;180;809751;-64
2023/03/04 06:47:46;;;;;;;58.03;25.97;;;;;;;;;;778553;180;712983;-66
2023/03/04 06:50:12;;;;;;;49.27;24.70;;;;;;;;;;772454;178;914528;-66
2023/03/04 06:52:38;;;;;;;50.20;25.37;;;;;;;;;;774966;180;713661;-67
2023/03/04 06:55:04;;;;;;;50.50;24.00;;;;;;;;;;765819;179;918115;-66
2023/03/04 06:57:30;;;;;;;50.37;25.53;;;;;;;;;;776313;181;654421;-66
2023/03/04 06:59:56;;;;;;;45.93;24.70;;;;;;;;;;770107;180;909304;-66
2023/03/04 07:02:22;;;;;;;46.50;23.10;;;;;;;;;;769511;179;918457;-65
2023/03/04 07:04:47;;;;;;;53.10;25.03;;;;;;;;;;775724;180;918775;-66
2023/03/04 07:07:13;;;;;;;41.73;23.80;;;;;;;;;;770310;181;1010709;-63
2023/03/04 07:09:39;;;;;;;52.80;23.40;;;;;;;;;;768566;181;918753;-66
2023/03/04 07:12:05;;;;;;;45.17;23.10;;;;;;;;;;778281;181;811783;-66
2023/03/04 07:14:31;;;;;;;45.70;21.73;;;;;;;;;;773916;181;689050;-64
2023/03/04 07:16:57;;;;;;;47.17;22.07;;;;;;;;;;771129;181;919297;-65
2023/03/04 07:19:22;;;;;;;45.57;22.77;;;;;;;;;;769521;181;920170;-63
2023/03/04 07:21:48;;;;;;;41.27;21.57;;;;;;;;;;771139;179;788848;-63
2023/03/04 07:24:14;;;;;;;42.10;21.10;;;;;;;;;;770182;181;715329;-65
2023/03/04 07:26:40;;;;;;;49.43;21.87;;;;;;;;;;769359;181;923749;-67
2023/03/04 07:29:06;;;;;;;43.70;21.30;;;;;;;;;;776249;181;817210;-66
2023/03/04 07:31:32;;;;;;;38.07;21.07;;;;;;;;;;769829;180;903347;-65
2023/03/04 07:33:58;;;;;;;40.30;20.10;;;;;;;;;;766450;181;915156;-64
2023/03/04 07:36:24;;;;;;;42.57;21.93;;;;;;;;;;772246;180;1020913;-67
2023/03/04 07:38:49;;;;;;;45.07;20.27;;;;;;;;;;772483;179;813773;-66
2023/03/04 07:41:15;;;;;;;42.08;22.33;;;;;;;;;;768731;180;919582;-67
2023/03/04 07:43:41;;;;;;;44.80;21.93;;;;;;;;;;763462;181;721568;-63
2023/03/04 07:46:07;;;;;;;35.57;19.97;;;;;;;;;;776097;180;801366;-65
2023/03/04 07:48:33;;;;;;;47.73;22.60;;;;;;;;;;767611;181;924650;-65
2023/03/04 07:51:06;;;;;;;39.30;20.00;;;;;;;;;;766546;179;919537;-63
2023/03/04 07:53:32;;;;;;;44.30;21.05;;;;;;;;;;774926;181;943571;-64
2023/03/04 07:55:58;;;;;;;44.10;21.67;;;;;;;;;;770160;180;875391;-67
2023/03/04 07:58:24;;;;;;;39.10;17.83;;;;;;;;;;770699;179;908391;-69
2023/03/04 08:00:50;;;;;;;38.70;19.87;;;;;;;;;;771769;180;915907;-65
2023/03/04 08:03:16;;;;;;;41.87;19.77;;;;;;;;;;777653;180;918330;-67
2023/03/04 08:05:42;;;;;;;37.00;20.43;;;;;;;;;;771370;181;911846;-66
2023/03/04 08:08:08;;;;;;;37.43;20.93;;;;;;;;;;771295;180;920645;-67
2023/03/04 08:10:33;;;;;;;45.37;20.80;;;;;;;;;;776812;180;823615;-65
2023/03/04 08:12:59;;;;;;;43.53;21.60;;;;;;;;;;769292;180;1012666;-68
2023/03/04 08:15:26;;;;;;;40.53;21.40;;;;;;;;;;769159;180;922888;-66
2023/03/04 08:17:51;;;;;;;40.30;21.17;;;;;;;;;;776044;180;917226;-68
2023/03/04 08:20:17;;;;;;;41.33;22.30;;;;;;;;;;769532;181;944717;-68
2023/03/04 08:22:43;;;;;;;50.15;19.75;;;;;;;;;;768560;180;916118;-67
2023/03/04 08:25:08;;;;;;;40.73;21.67;;;;;;;;;;770283;180;915652;-68
2023/03/04 08:27:36;;;;;;;44.13;19.10;;;;;;;;;;766840;182;699619;-67
2023/03/04 08:30:00;;;;;;;39.67;20.55;;;;;;;;;;771841;180;914272;-66
2023/03/04 08:32:26;;;;;;;37.77;21.10;;;;;;;;;;769861;181;1020629;-65
2023/03/04 08:34:54;;;;;;;37.83;20.00;;;;;;;;;;775871;180;912509;-65
2023/03/04 08:37:18;;;;;;;38.50;19.33;;;;;;;;;;771039;180;815297;-68
2023/03/04 08:39:45;;;;;;;30.70;19.30;;;;;;;;;;770474;180;851412;-67
2023/03/04 08:42:11;;;;;;;47.47;22.50;;;;;;;;;;774217;180;705441;-67
2023/03/04 08:44:36;;;;;;;47.73;20.37;;;;;;;;;;770520;181;843160;-67
2023/03/04 08:47:02;;;;;;;36.33;18.90;;;;;;;;;;770023;181;918648;-68
2023/03/04 08:49:28;;;;;;;42.83;21.30;;;;;;;;;;767584;181;918248;-68
2023/03/04 08:51:54;;;;;;;38.40;20.27;;;;;;;;;;759291;183;816748;-68
2023/03/04 08:54:20;;;;;;;49.93;22.20;;;;;;;;;;769210;179;917740;-65
2023/03/04 08:56:46;;;;;;;44.43;21.07;;;;;;;;;;765828;181;925425;-66
2023/03/04 08:59:11;;;;;;;50.47;20.73;;;;;;;;;;771751;180;915965;-68
2023/03/04 09:01:37;;;;;;;40.07;20.43;;;;;;;;;;768060;179;1018078;-68
2023/03/04 09:04:03;;;;;;;42.87;18.50;;;;;;;;;;767635;181;910487;-67
2023/03/04 09:06:29;;;;;;;42.70;20.40;;;;;;;;;;781712;180;715313;-66
2023/03/04 09:08:55;;;;;;;40.03;20.40;;;;;;;;;;758932;180;919740;-68
2023/03/04 09:11:21;;;;;;;39.03;20.88;;;;;;;;;;773671;179;906440;-69
2023/03/04 09:13:48;;;;;;;41.88;21.00;;;;;;;;;;776169;180;812164;-65
2023/03/04 09:16:13;;;;;;;40.17;23.13;;;;;;;;;;769319;180;918705;-67
2023/03/04 09:18:39;;;;;;;39.47;20.10;;;;;;;;;;768559;180;927788;-66
2023/03/04 09:21:05;;;;;;;40.80;22.23;;;;;;;;;;771815;180;815315;-67
2023/03/04 09:23:31;;;;;;;51.27;22.13;;;;;;;;;;776105;180;806813;-67
2023/03/04 09:25:56;;;;;;;45.57;18.40;;;;;;;;;;772128;181;918679;-68
2023/03/04 09:28:22;;;;;;;44.43;20.40;;;;;;;;;;772810;180;813279;-65
2023/03/04 09:30:48;;;;;;;40.60;21.70;;;;;;;;;;777576;179;738085;-67
2023/03/04 09:33:14;;;;;;;53.60;23.17;;;;;;;;;;770579;180;918869;-66
2023/03/04 09:35:40;;;;;;;43.27;23.20;;;;;;;;;;773738;181;750070;-64
2023/03/04 09:38:06;;;;;;;42.37;21.77;;;;;;;;;;775612;179;816943;-65
2023/03/04 09:40:32;;;;;;;38.40;19.00;;;;;;;;;;766631;181;917574;-68
2023/03/04 09:42:58;;;;;;;41.10;19.37;;;;;;;;;;769100;181;919554;-68
2023/03/04 09:45:24;;;;;;;43.33;21.80;;;;;;;;;;768949;181;942158;-66
2023/03/04 09:47:50;;;;;;;33.63;19.13;;;;;;;;;;775242;180;816093;-66
2023/03/04 09:50:16;;;;;;;37.10;21.60;;;;;;;;;;770011;181;919047;-67
2023/03/04 09:52:42;;;;;;;34.83;16.00;;;;;;;;;;768203;181;921052;-67
2023/03/04 09:55:14;;;;;;;30.23;17.33;;;;;;;;;;774823;181;864119;-65
2023/03/04 09:57:44;;;;;;;36.30;17.23;;;;;;;;;;772000;180;916466;-65
2023/03/04 10:00:18;;;;;;;29.83;14.83;;;;;;;;;;770202;181;918677;-64
2023/03/04 10:02:39;;;;;;;32.17;15.17;;;;;;;;;;769002;181;917625;-67
2023/03/04 10:05:05;;;;;;;33.00;16.37;;;;;;;;;;773950;180;918316;-66
2023/03/04 10:07:31;;;;;;;31.17;17.77;;;;;;;;;;771427;180;873197;-64
2023/03/04 10:09:59;;;;;;;34.73;16.70;;;;;;;;;;769531;180;926363;-68
2023/03/04 10:12:26;;;;;;;32.07;16.03;;;;;;;;;;768579;180;919304;-67
2023/03/04 10:14:51;;;;;;;33.77;18.30;;;;;;;;;;773625;181;909903;-67
2023/03/04 10:17:23;;;;;;;36.78;18.17;;;;;;;;;;769853;181;909505;-65
2023/03/04 10:20:02;;;;;;;30.10;17.30;;;;;;;;;;770177;179;973638;-64
2023/03/04 10:22:32;;;;;;;30.10;16.83;;;;;;;;;;775493;179;920247;-65
2023/03/04 10:24:57;;;;;;;44.53;21.33;;;;;;;;;;777624;180;816787;-66
2023/03/04 10:27:23;;;;;;;39.33;18.77;;;;;;;;;;770811;181;813234;-65
2023/03/04 10:29:49;;;;;;;39.90;20.10;;;;;;;;;;770211;181;818026;-65
2023/03/04 10:32:15;;;;;;;39.70;18.63;;;;;;;;;;770355;180;822112;-67
2023/03/04 10:34:41;;;;;;;36.50;17.50;;;;;;;;;;777400;180;621656;-67
2023/03/04 10:37:07;;;;;;;29.20;14.60;;;;;;;;;;770007;181;789413;-67
2023/03/04 10:39:35;;;;;;;31.87;16.27;;;;;;;;;;769001;181;814576;-66
2023/03/04 10:42:02;;;;;;;34.73;16.50;;;;;;;;;;777640;180;640833;-68
2023/03/04 10:44:28;;;;;;;30.80;15.13;;;;;;;;;;771590;180;818587;-66
2023/03/04 10:46:54;;;;;;;30.63;14.10;;;;;;;;;;772009;181;1019598;-67
2023/03/04 10:49:20;;;;;;;32.00;16.37;;;;;;;;;;771479;181;914518;-67
2023/03/04 10:51:47;;;;;;;32.53;13.43;;;;;;;;;;767816;181;804268;-64
2023/03/04 10:54:19;;;;;;;32.57;16.30;;;;;;;;;;766990;181;866273;-67
2023/03/04 10:56:45;;;;;;;29.50;15.80;;;;;;;;;;768534;180;917464;-66
2023/03/04 10:59:16;;;;;;;17.07;10.80;;;;;;;;;;775167;181;704724;-65
2023/03/04 11:01:42;;;;;;;28.03;14.80;;;;;;;;;;768177;180;918861;-66
2023/03/04 11:04:14;;;;;;;29.73;15.63;;;;;;;;;;766963;181;918908;-68
2023/03/04 11:06:39;;;;;;;28.87;15.27;;;;;;;;;;770858;180;817097;-69
2023/03/04 11:09:06;;;;;;;28.50;16.00;;;;;;;;;;775638;181;816714;-67
2023/03/04 11:11:37;;;;;;;26.13;16.20;;;;;;;;;;773787;181;626020;-65
2023/03/04 11:14:03;;;;;;;33.33;15.40;;;;;;;;;;773767;181;634311;-67
2023/03/04 11:16:29;;;;;;;33.23;18.40;;;;;;;;;;773839;181;636367;-66
2023/03/04 11:18:55;;;;;;;30.67;15.13;;;;;;;;;;778065;181;619823;-66
2023/03/04 11:21:21;;;;;;;26.60;15.27;;;;;;;;;;772186;181;628341;-67
2023/03/04 11:23:48;;;;;;;34.37;14.33;;;;;;;;;;769002;181;813887;-66
2023/03/04 11:26:14;;;;;;;24.80;15.63;;;;;;;;;;777697;180;631052;-65
2023/03/04 11:28:43;;;;;;;26.65;15.10;;;;;;;;;;762522;183;803303;-66
2023/03/04 11:31:12;;;;;;;24.63;13.80;;;;;;;;;;768784;181;907465;-70
2023/03/04 11:33:41;;;;;;;25.60;16.40;;;;;;;;;;771614;179;915255;-65
2023/03/04 11:36:08;;;;;;;27.27;14.17;;;;;;;;;;775103;180;862335;-68
2023/03/04 11:38:35;;;;;;;26.90;14.50;;;;;;;;;;767371;180;912426;-68
2023/03/04 11:41:03;;;;;;;29.17;15.53;;;;;;;;;;773113;178;919530;-67
2023/03/04 11:43:29;;;;;;;25.53;14.90;;;;;;;;;;773466;179;915684;-68
2023/03/04 11:46:04;;;;;;;23.53;14.37;;;;;;;;;;774054;180;918818;-68
2023/03/04 11:48:32;;;;;;;23.15;13.62;;;;;;;;;;771612;179;878442;-66
2023/03/04 11:50:58;;;;;;;23.17;13.03;;;;;;;;;;770212;179;919461;-66
2023/03/04 11:53:41;;;;;;;25.03;13.20;;;;;;;;;;770667;181;863633;-66
2023/03/04 11:56:12;;;;;;;22.63;13.10;;;;;;;;;;766924;181;915999;-66
2023/03/04 11:58:55;;;;;;;23.20;13.30;;;;;;;;;;774798;180;910054;-67
2023/03/04 12:01:26;;;;;;;27.03;13.47;;;;;;;;;;758400;183;705908;-69
2023/03/04 12:03:53;;;;;;;24.80;14.90;;;;;;;;;;763835;182;918885;-66
2023/03/04 12:06:36;;;;;;;20.60;12.07;;;;;;;;;;770499;179;1102763;-65
2023/03/04 12:09:22;;;;;;;30.25;14.70;;;;;;;;;;768218;180;919390;-69
2023/03/04 12:11:48;;;;;;;24.23;15.93;;;;;;;;;;768800;180;939445;-66
2023/03/04 12:14:29;;;;;;;30.17;15.97;;;;;;;;;;769840;181;814984;-67
2023/03/04 12:17:00;;;;;;;21.53;14.07;;;;;;;;;;769866;181;816634;-65
2023/03/04 12:19:25;;;;;;;21.53;14.07;;;;;;;;;;775770;181;816724;-65
2023/03/04 12:21:54;;;;;;;27.37;15.10;;;;;;;;;;769684;180;885172;-67
2023/03/04 12:24:26;;;;;;;27.98;14.15;;;;;;;;;;768411;180;919371;-65
2023/03/04 12:26:54;;;;;;;25.57;14.17;;;;;;;;;;768522;180;913523;-67
2023/03/04 12:29:20;;;;;;;25.00;15.40;;;;;;;;;;772793;179;919179;-68
2023/03/04 12:31:46;;;;;;;28.30;16.33;;;;;;;;;;769562;179;948568;-66
2023/03/04 12:34:12;;;;;;;30.60;14.70;;;;;;;;;;773818;181;628167;-68
2023/03/04 12:36:39;;;;;;;24.40;14.60;;;;;;;;;;772756;180;842261;-65
2023/03/04 12:39:23;;;;;;;25.17;15.27;;;;;;;;;;771939;181;818359;-66
2023/03/04 12:41:51;;;;;;;32.30;13.87;;;;;;;;;;765364;182;814883;-70
2023/03/04 12:44:17;;;;;;;23.20;12.17;;;;;;;;;;768905;180;909739;-67
2023/03/04 12:46:43;;;;;;;23.10;13.13;;;;;;;;;;773005;180;815509;-65
2023/03/04 12:49:26;;;;;;;19.83;12.70;;;;;;;;;;774838;181;918766;-65
2023/03/04 12:51:53;;;;;;;22.00;12.83;;;;;;;;;;769220;179;919542;-66
2023/03/04 12:54:33;;;;;;;24.53;15.60;;;;;;;;;;771169;179;861918;-68
2023/03/04 12:57:01;;;;;;;26.47;12.70;;;;;;;;;;772400;179;917936;-69
2023/03/04 12:59:27;;;;;;;19.93;13.00;;;;;;;;;;768054;180;811891;-66
2023/03/04 13:01:53;;;;;;;24.70;14.10;;;;;;;;;;770320;181;824801;-68
2023/03/04 13:04:29;;;;;;;34.17;13.23;;;;;;;;;;774243;180;917765;-69
2023/03/04 13:07:00;;;;;;;23.37;12.77;;;;;;;;;;768202;181;921288;-66
2023/03/04 13:09:26;;;;;;;21.37;12.57;;;;;;;;;;769179;181;819267;-69
2023/03/04 13:11:52;;;;;;;23.10;12.50;;;;;;;;;;771791;180;918480;-69
2023/03/04 13:14:23;;;;;;;22.27;12.40;;;;;;;;;;774271;181;910167;-69
2023/03/04 13:16:48;;;;;;;24.23;12.03;;;;;;;;;;769867;180;862752;-66
2023/03/04 13:19:20;;;;;;;20.13;11.83;;;;;;;;;;768225;180;938881;-65
2023/03/04 13:21:46;;;;;;;22.73;12.77;;;;;;;;;;770720;181;913221;-69
2023/03/04 13:24:18;;;;;;;20.98;11.38;;;;;;;;;;773087;181;816714;-66
2023/03/04 13:26:44;;;;;;;15.23;9.10;;;;;;;;;;770400;181;899108;-66
2023/03/04 13:29:09;;;;;;;21.30;12.48;;;;;;;;;;769970;181;850835;-70
2023/03/04 13:31:35;;;;;;;23.27;12.53;;;;;;;;;;768758;181;915432;-68
2023/03/04 13:34:01;;;;;;;18.57;10.83;;;;;;;;;;764453;183;706085;-68
2023/03/04 13:36:30;;;;;;;28.83;14.47;;;;;;;;;;770240;180;919034;-68
2023/03/04 13:38:56;;;;;;;19.73;11.57;;;;;;;;;;768167;181;914305;-68
2023/03/04 13:41:22;;;;;;;22.70;12.20;;;;;;;;;;772687;181;871983;-69
2023/03/04 13:43:51;;;;;;;24.53;14.03;;;;;;;;;;771182;180;816876;-68
2023/03/04 13:46:32;;;;;;;20.67;12.53;;;;;;;;;;771158;180;919549;-65
2023/03/04 13:48:59;;;;;;;21.43;13.17;;;;;;;;;;769428;180;802638;-66
2023/03/04 13:51:26;;;;;;;18.35;13.30;;;;;;;;;;771756;181;920196;-65
2023/03/04 13:54:07;;;;;;;25.00;12.37;;;;;;;;;;773638;179;909322;-68
2023/03/04 13:56:36;;;;;;;20.10;13.10;;;;;;;;;;766767;182;816470;-68
2023/03/04 13:59:10;;;;;;;20.73;12.73;;;;;;;;;;770604;180;903776;-65
2023/03/04 14:01:36;;;;;;;23.35;14.48;;;;;;;;;;771004;181;918390;-65